• Join FlightAware (Why Join?)
  • Login
  • US Flag 
02:12AM EDT


 

Airport Tracker/Info


-or-


 

Live Flight TrackerFlight Track Log ✈ LAN438 ✈ 16-Jun-2013 ✈ SABE / AEP - SCEL / SCL

Flight Track Log - Related Links

Times and Time Zones

All times are in EDT time to prevent confusion due to time zone crossing. See the LAN438 flight status page for this flight to view local times or setup timezone preferences in your user account.

Time Position Orientation Groundspeed Altitude Reporting Facility
EDT Latitude Longitude Course Direction KTS MPH feet Rate Location/Type
05:00AM -34.5480 -58.4350 305° West 152 175 800  Level FlightAware
05:01AM -34.5330 -58.4490 322° Northwest 180 207 1,800 1,980 Climbing FlightAware
05:01AM -34.5050 -58.4400 15° North 240 276 2,600 2,700 Climbing FlightAware
05:02AM -34.4810 -58.4180 37° Northeast 240 276 4,400 3,720 Climbing FlightAware
05:02AM -34.4550 -58.3950 36° Northeast 238 274 6,100 3,600 Climbing FlightAware
05:03AM -34.4300 -58.3810 25° Northeast 231 266 7,600 3,300 Climbing FlightAware
05:03AM -34.4040 -58.3980 332° Northwest 225 259 9,200 3,120 Climbing FlightAware
05:03AM -34.3990 -58.4180 287° West 234 269 10,000 1,980 Climbing FlightAware
05:04AM -34.4060 -58.4740 261° West 283 326 11,100 1,860 Climbing FlightAware
05:05AM -34.4250 -58.6020 260° West 337 388 13,600 2,400 Climbing FlightAware
05:06AM -34.4390 -58.6910 259° West 342 394 15,900 2,760 Climbing FlightAware
05:07AM -34.4510 -58.7700 260° West 357 411 17,500 2,580 Climbing FlightAware
05:07AM -34.4630 -58.8520 260° West 355 409 19,500 2,820 Climbing FlightAware
05:08AM -34.4750 -58.9320 260° West 352 405 21,500 2,280 Climbing FlightAware
05:09AM -34.4870 -59.0120 260° West 365 420 22,600 1,800 Climbing FlightAware
05:10AM -34.5000 -59.1020 260° West 368 423 24,100 1,920 Climbing FlightAware
05:10AM -34.5120 -59.1880 260° West 374 430 25,400 1,800 Climbing FlightAware
05:11AM -34.5250 -59.2780 260° West 378 435 26,700 1,740 Climbing FlightAware
05:11AM -34.5330 -59.3290 259° West 379 436 27,400 1,560 Climbing FlightAware
05:12AM -34.5460 -59.4240 261° West 383 441 28,600 1,500 Climbing FlightAware
05:13AM -34.5590 -59.5110 260° West 387 445 29,600 1,440 Climbing FlightAware
05:14AM -34.5700 -59.6050 262° West 390 449 30,600 1,800 Climbing FlightAware
05:14AM -34.5690 -59.6920 271° West 375 432 32,200 1,860 Climbing FlightAware
05:15AM -34.5680 -59.7740 271° West 375 432 33,100 1,260 Climbing FlightAware
05:16AM -34.5660 -59.8640 272° West 373 429 34,000 600 Climbing FlightAware
05:16AM -34.5640 -59.9580 271° West 371 427 34,000  Level FlightAware
05:17AM -34.5630 -60.0410 271° West 372 428 34,000  Level FlightAware
05:18AM -34.5610 -60.1220 272° West 371 427 34,000  Level FlightAware
05:18AM -34.5590 -60.2190 271° West 369 425 34,000  Level FlightAware
05:19AM -34.5570 -60.3040 272° West 368 423 34,000  Level FlightAware
05:20AM -34.5550 -60.4070 271° West 369 425 34,000  Level FlightAware
05:21AM -34.5520 -60.5060 272° West 368 423 34,000  Level FlightAware
05:21AM -34.5510 -60.5820 271° West 368 423 34,000  Level FlightAware
05:22AM -34.5490 -60.6710 272° West 368 423 34,000  Level FlightAware
05:23AM -34.5480 -60.7340 271° West 368 423 34,000  Level FlightAware
05:24AM -34.5470 -60.8180 271° West 368 423 34,000  Level FlightAware
05:24AM -34.5460 -60.8810 271° West 368 423 34,000  Level FlightAware
05:25AM -34.5450 -60.9230 272° West 368 423 34,000  Level FlightAware
05:26AM -34.5430 -61.0690 271° West 368 423 34,000  Level FlightAware
05:27AM -34.5420 -61.1320 271° West 368 423 34,000  Level FlightAware
05:27AM -34.5410 -61.2200 271° West 368 423 34,000  Level FlightAware
05:28AM -34.5400 -61.2840 271° West 368 423 34,000  Level FlightAware
05:29AM -34.5390 -61.3700 271° West 368 423 34,000  Level FlightAware
05:29AM -34.5380 -61.4330 271° West 368 423 34,000  Level FlightAware
05:30AM -34.5370 -61.5140 271° West 368 423 34,000  Level FlightAware
05:31AM -34.5360 -61.5770 271° West 368 423 34,000 180 Level FlightAware
05:34AM -34.5129 -61.8441 276° West  Level Estimated
05:35AM -34.5041 -61.9436 276° West  Level Estimated
05:36AM -34.4953 -62.0431 276° West  Level Estimated
05:37AM -34.4864 -62.1426 276° West  Level Estimated
05:38AM -34.4774 -62.2420 276° West  Level Estimated
05:39AM -34.4683 -62.3415 276° West  Level Estimated
05:40AM -34.4591 -62.4409 276° West  Level Estimated
05:41AM -34.4499 -62.5402 276° West  Level Estimated
05:42AM -34.4406 -62.6396 276° West  Level Estimated
05:43AM -34.4312 -62.7389 277° West  Level Estimated
05:44AM -34.4217 -62.8382 277° West  Level Estimated
05:45AM -34.4121 -62.9375 277° West  Level Estimated
05:46AM -34.4025 -63.0368 277° West  Level Estimated
05:47AM -34.3928 -63.1361 277° West  Level Estimated
05:48AM -34.3830 -63.2353 277° West  Level Estimated
05:49AM -34.3731 -63.3345 277° West  Level Estimated
05:49AM -34.0270 -63.9390 277° West 371 427 38,000  Level FlightAware
05:50AM -34.0110 -64.0220 283° West 370 426 38,000  Level FlightAware
05:50AM -33.9980 -64.0870 284° West 370 426 38,000  Level FlightAware
05:51AM -33.9830 -64.1690 282° West 370 426 38,000  Level FlightAware
05:52AM -33.9710 -64.2310 283° West 370 426 38,000  Level FlightAware
05:52AM -33.9590 -64.2940 283° West 370 426 38,000  Level FlightAware
05:53AM -33.9430 -64.3760 283° West 370 426 38,000  Level FlightAware
05:54AM -33.9070 -64.5300 286° West 369 425 38,000  Level FlightAware
05:55AM -33.8940 -64.5990 283° West 370 426 38,000  Level FlightAware
05:56AM -33.8660 -64.7360 284° West 371 427 38,000  Level FlightAware
05:57AM -33.8500 -64.8190 283° West 371 427 38,000  Level FlightAware
05:57AM -33.8390 -64.8800 282° West 371 427 38,000  Level FlightAware
05:58AM -33.8230 -64.9620 283° West 371 427 38,000  Level FlightAware
05:59AM -33.8110 -65.0240 283° West 371 427 38,000  Level FlightAware
05:59AM -33.7950 -65.1080 283° West 371 427 38,000  Level FlightAware
06:00AM -33.7830 -65.1710 283° West 371 427 38,000  Level FlightAware
06:01AM -33.7670 -65.2530 283° West 371 427 38,000  Level FlightAware
06:01AM -33.7170 -65.4320 289° West 374 430 38,000  Level FlightAware
06:02AM -33.6930 -65.5250 287° West 374 430 38,000  Level FlightAware
06:03AM -33.6770 -65.5930 286° West 374 430 38,000  Level FlightAware
06:04AM -33.6570 -65.6750 286° West 374 430 38,000  Level FlightAware
06:04AM -33.6420 -65.7380 286° West 374 430 38,000  Level FlightAware
06:05AM -33.6240 -65.8160 285° West 374 430 38,000  Level FlightAware
06:06AM -33.6090 -65.8790 286° West 374 430 38,000  Level FlightAware
06:06AM -33.5890 -65.9600 286° West 374 430 38,000  Level FlightAware
06:07AM -33.5740 -66.0230 286° West 374 430 38,000  Level FlightAware
06:08AM -33.5600 -66.0840 285° West 374 430 38,000  Level FlightAware
06:08AM -33.5400 -66.1650 286° West 374 430 38,000  Level FlightAware
06:09AM -33.5260 -66.2270 285° West 374 430 38,000  Level FlightAware
06:10AM -33.5060 -66.3080 286° West 374 430 38,000  Level FlightAware
06:10AM -33.4910 -66.3720 286° West 374 430 38,000  Level FlightAware
06:11AM -33.4770 -66.4300 286° West 374 430 38,000  Level FlightAware
06:12AM -33.4570 -66.5110 286° West 374 430 38,000  Level FlightAware
06:14AM -33.4572 -66.6790 270° West  Level Estimated
06:15AM -33.4573 -66.7779 270° West  Level Estimated
06:16AM -33.4573 -66.8767 270° West  Level Estimated
06:17AM -33.4571 -66.9756 270° West  Level Estimated
06:18AM -33.4570 -67.0744 270° West  Level Estimated
06:19AM -33.4567 -67.1733 270° West  Level Estimated
06:20AM -33.4563 -67.2721 270° West  Level Estimated
06:21AM -33.4559 -67.3710 270° West  Level Estimated
06:22AM -33.4554 -67.4698 270° West  Level Estimated
06:23AM -33.4548 -67.5686 270° West  Level Estimated
06:24AM -33.4542 -67.6675 270° West  Level Estimated
06:25AM -33.4534 -67.7663 270° West  Level Estimated
06:26AM -33.4526 -67.8652 271° West  Level Estimated
06:27AM -33.4517 -67.9640 271° West  Level Estimated
06:27AM -32.9270 -68.4490 271° West 385 443 38,100  Level FlightAware
06:27AM -32.9050 -68.5280 288° West 385 443 38,000 -120 Descending FlightAware
06:28AM -32.8800 -68.6200 288° West 386 444 38,000  Level FlightAware
06:29AM -32.8590 -68.6920 289° West 384 442 38,000  Level FlightAware
06:29AM -32.8420 -68.7680 285° West 375 432 38,000  Level FlightAware
06:31AM -32.8380 -68.9220 272° West 365 420 38,000  Level FlightAware
06:31AM -32.8420 -69.0080 267° West 362 417 38,000  Level FlightAware
06:32AM -32.8460 -69.0880 267° West 365 420 38,000  Level FlightAware
06:33AM -32.8510 -69.2040 267° West 356 410 38,000  Level FlightAware
06:34AM -32.8540 -69.2820 267° West 362 417 38,000  Level FlightAware
06:34AM -32.8580 -69.3690 267° West 371 427 38,000 -480 Level FlightAware
06:35AM -32.8620 -69.4790 267° West 333 383 37,200 -1,320 Descending FlightAware
06:36AM -32.8660 -69.5500 266° West 326 375 36,000 -2,280 Descending FlightAware
06:37AM -32.8690 -69.6290 267° West 326 375 34,200 -2,220 Descending FlightAware
06:37AM -32.8720 -69.7020 267° West 331 381 32,900 -1,980 Descending FlightAware
06:38AM -32.8750 -69.7720 267° West 330 380 31,600 -1,320 Descending FlightAware
06:39AM -32.8780 -69.8400 267° West 329 379 31,100 -360 Descending FlightAware
06:40AM -32.8810 -69.9140 267° West 329 379 31,100 -2,700 Level FlightAware
06:40AM -32.8830 -69.9820 268° West 315 362 27,400 -3,840 Descending FlightAware
06:41AM -32.8770 -70.0650 275° West 307 353 26,000 -2,040 Descending FlightAware
06:42AM -32.8720 -70.1240 276° West 301 346 24,700 -1,560 Descending FlightAware
06:43AM -32.8630 -70.2250 276° West 302 348 23,400 -780 Descending FlightAware
06:43AM -32.8580 -70.2790 276° West 302 348 23,400 -2,580 Level FlightAware
06:44AM -32.8500 -70.3600 277° West 302 348 19,900 -3,540 Descending FlightAware
06:45AM -32.8440 -70.4290 276° West 303 349 18,600 -1,020 Descending FlightAware
06:45AM -32.8400 -70.4740 276° West 303 349 18,500 -120 Descending FlightAware
06:46AM -32.8350 -70.5250 277° West 303 349 18,500  Level FlightAware
06:47AM -32.8290 -70.5940 276° West 303 349 18,500  Level FlightAware
06:47AM -32.8250 -70.6450 275° West 303 349 18,500  Level FlightAware
06:48AM -32.8190 -70.7140 276° West 303 349 18,500  Level FlightAware
06:49AM -32.8140 -70.7660 277° West 303 349 18,500 -3,060 Level FlightAware
06:52AM -33.0297 -70.7734 182° South  Level Estimated
06:53AM -33.1121 -70.7762 182° South  Level Estimated
06:53AM -33.1930 -70.7970 182° South 234 269 4,800  Level FlightAware
06:53AM -33.2120 -70.7960 177° South 210 242 4,600 -780 Descending FlightAware
06:54AM -33.2430 -70.7940 177° South 188 216 4,000 -1,080 Descending FlightAware
06:54AM -33.2590 -70.7930 177° South 180 207 3,600 -540 Descending FlightAware
06:55AM -33.2770 -70.7920 177° South 180 207 3,600 -900 Level FlightAware
06:55AM -33.3040 -70.7910 178° South 153 176 2,800 -840 Descending FlightAware
06:56AM -33.3300 -70.7890 176° South 151 174 2,600 -660 Descending FlightAware
06:56AM -33.3610 -70.7870 177° South 147 169 2,000 -1,140 Descending FlightAware
06:58AM -33.3970 -70.7870 180° South 147 169 -1,200 Descending FlightAware
06:59AM -33.3920 -70.7680 73° East 147 169  Level FlightAware
06:59AM -33.4040 -70.7730 199° South 147 169  Level FlightAware
07:00AM -33.3940 -70.7890 307° West 147 169  Level FlightAware
07:01AM -33.3960 -70.7790 103° East 147 169  Level FlightAware
07:04AM -33.3930 -70.7858 270° West  Level Estimated
07:05AM -33.3930 -70.7858 270° West  Level Estimated
07:06AM -33.3930 -70.7858 270° West  Level Estimated
07:07AM -33.3930 -70.7858 270° West  Level Estimated
07:08AM -33.3930 -70.7858 270° West  Level Estimated
07:09AM -33.3930 -70.7858 270° West  Level Estimated